sensor_id;sensor_type;location;lat;lon;timestamp;pressure;altitude;pressure_sealevel;temperature;humidity
75424;BME280;64005;55.160;36.002;2023-05-29T00:00:33;99409.47;;;5.15;71.24
75424;BME280;64005;55.160;36.002;2023-05-29T00:03:00;99404.81;;;5.11;71.31
75424;BME280;64005;55.160;36.002;2023-05-29T00:05:32;99407.03;;;5.09;70.82
75424;BME280;64005;55.160;36.002;2023-05-29T00:07:59;99418.63;;;5.06;70.48
75424;BME280;64005;55.160;36.002;2023-05-29T00:10:27;99419.22;;;5.03;71.13
75424;BME280;64005;55.160;36.002;2023-05-29T00:12:57;99418.16;;;4.99;71.43
75424;BME280;64005;55.160;36.002;2023-05-29T00:15:26;99420.66;;;4.95;70.87
75424;BME280;64005;55.160;36.002;2023-05-29T00:17:54;99426.19;;;4.95;71.07
75424;BME280;64005;55.160;36.002;2023-05-29T00:20:22;99422.88;;;4.93;70.86
75424;BME280;64005;55.160;36.002;2023-05-29T00:22:51;99423.19;;;4.92;71.45
75424;BME280;64005;55.160;36.002;2023-05-29T00:25:18;99430.09;;;4.89;71.13
75424;BME280;64005;55.160;36.002;2023-05-29T00:27:47;99416.59;;;4.88;71.20
75424;BME280;64005;55.160;36.002;2023-05-29T00:30:15;99422.69;;;4.85;71.20
75424;BME280;64005;55.160;36.002;2023-05-29T00:32:43;99427.66;;;4.83;71.51
75424;BME280;64005;55.160;36.002;2023-05-29T00:35:11;99417.75;;;4.82;71.77
75424;BME280;64005;55.160;36.002;2023-05-29T00:37:39;99428.53;;;4.78;71.24
75424;BME280;64005;55.160;36.002;2023-05-29T00:40:09;99427.47;;;4.74;71.73
75424;BME280;64005;55.160;36.002;2023-05-29T00:42:37;99415.69;;;4.63;70.91
75424;BME280;64005;55.160;36.002;2023-05-29T00:45:06;99428.59;;;4.68;70.92
75424;BME280;64005;55.160;36.002;2023-05-29T00:47:34;99419.56;;;4.62;71.48
75424;BME280;64005;55.160;36.002;2023-05-29T00:50:02;99429.72;;;4.67;71.04
75424;BME280;64005;55.160;36.002;2023-05-29T00:52:30;99431.13;;;4.64;71.36
75424;BME280;64005;55.160;36.002;2023-05-29T00:54:58;99319.84;;;3.87;71.32
75424;BME280;64005;55.160;36.002;2023-05-29T00:57:29;99421.50;;;4.62;71.68
75424;BME280;64005;55.160;36.002;2023-05-29T00:59:58;99367.78;;;4.20;71.62
75424;BME280;64005;55.160;36.002;2023-05-29T01:02:32;99433.91;;;4.59;71.48
75424;BME280;64005;55.160;36.002;2023-05-29T01:04:59;99433.38;;;4.57;71.35
75424;BME280;64005;55.160;36.002;2023-05-29T01:07:29;99429.81;;;4.57;71.75
75424;BME280;64005;55.160;36.002;2023-05-29T01:09:57;99431.47;;;4.58;71.51
75424;BME280;64005;55.160;36.002;2023-05-29T01:12:35;99429.81;;;4.57;71.21
75424;BME280;64005;55.160;36.002;2023-05-29T01:15:14;99427.59;;;4.54;71.33
75424;BME280;64005;55.160;36.002;2023-05-29T01:20:37;99428.44;;;4.54;71.29
75424;BME280;64005;55.160;36.002;2023-05-29T01:26:17;99432.84;;;4.55;71.36
75424;BME280;64005;55.160;36.002;2023-05-29T01:28:57;99436.69;;;4.54;71.07
75424;BME280;64005;55.160;36.002;2023-05-29T01:31:26;99428.44;;;4.54;72.05
75424;BME280;64005;55.160;36.002;2023-05-29T01:33:57;99438.91;;;4.57;71.03
75424;BME280;64005;55.160;36.002;2023-05-29T01:36:26;99441.06;;;4.60;71.53
75424;BME280;64005;55.160;36.002;2023-05-29T01:38:56;99378.25;;;4.23;71.52
75424;BME280;64005;55.160;36.002;2023-05-29T01:41:25;99447.34;;;4.66;71.46
75424;BME280;64005;55.160;36.002;2023-05-29T01:43:56;99450.94;;;4.66;71.14
75424;BME280;64005;55.160;36.002;2023-05-29T01:46:49;99451.47;;;4.68;71.39
75424;BME280;64005;55.160;36.002;2023-05-29T01:49:56;99438.59;;;4.59;71.63
75424;BME280;64005;55.160;36.002;2023-05-29T01:52:24;99449.50;;;4.74;70.92
75424;BME280;64005;55.160;36.002;2023-05-29T01:54:51;99450.59;;;4.78;70.90
75424;BME280;64005;55.160;36.002;2023-05-29T01:59:51;99457.66;;;4.89;71.87
75424;BME280;64005;55.160;36.002;2023-05-29T02:02:21;99448.28;;;4.90;71.22
75424;BME280;64005;55.160;36.002;2023-05-29T02:04:49;99463.91;;;5.00;71.39
75424;BME280;64005;55.160;36.002;2023-05-29T02:07:17;99443.56;;;4.96;71.30
75424;BME280;64005;55.160;36.002;2023-05-29T02:09:45;99455.56;;;5.10;71.85
75424;BME280;64005;55.160;36.002;2023-05-29T02:12:13;99456.63;;;5.14;71.33
75424;BME280;64005;55.160;36.002;2023-05-29T02:14:40;99453.53;;;5.20;71.73
75424;BME280;64005;55.160;36.002;2023-05-29T02:17:10;99454.84;;;5.28;71.28
75424;BME280;64005;55.160;36.002;2023-05-29T02:19:37;99460.84;;;5.35;71.23
75424;BME280;64005;55.160;36.002;2023-05-29T02:22:05;99461.31;;;5.42;71.79
75424;BME280;64005;55.160;36.002;2023-05-29T02:24:32;99466.22;;;5.50;70.78
75424;BME280;64005;55.160;36.002;2023-05-29T02:27:01;99447.72;;;5.51;70.81
75424;BME280;64005;55.160;36.002;2023-05-29T02:29:29;99452.22;;;5.66;71.73
75424;BME280;64005;55.160;36.002;2023-05-29T02:31:56;99459.03;;;5.73;71.19
75424;BME280;64005;55.160;36.002;2023-05-29T02:34:25;99468.56;;;5.86;71.62
75424;BME280;64005;55.160;36.002;2023-05-29T02:36:53;99473.72;;;5.97;71.01
75424;BME280;64005;55.160;36.002;2023-05-29T02:39:20;99471.22;;;6.20;70.27
75424;BME280;64005;55.160;36.002;2023-05-29T02:41:48;99466.63;;;6.53;70.81
75424;BME280;64005;55.160;36.002;2023-05-29T02:44:16;99471.09;;;7.37;70.66
75424;BME280;64005;55.160;36.002;2023-05-29T02:46:43;99476.56;;;8.52;68.75
75424;BME280;64005;55.160;36.002;2023-05-29T02:52:10;99479.66;;;10.80;65.05
75424;BME280;64005;55.160;36.002;2023-05-29T04:32:12;99412.97;;;15.46;49.31
75424;BME280;64005;55.160;36.002;2023-05-29T04:34:40;99521.59;;;16.05;49.15
75424;BME280;64005;55.160;36.002;2023-05-29T05:03:23;99533.66;;;15.62;47.30
75424;BME280;64005;55.160;36.002;2023-05-29T05:05:51;99524.28;;;15.58;46.89
75424;BME280;64005;55.160;36.002;2023-05-29T05:10:54;99469.41;;;15.44;46.58
75424;BME280;64005;55.160;36.002;2023-05-29T05:13:21;99534.53;;;15.94;46.58
75424;BME280;64005;55.160;36.002;2023-05-29T05:15:49;99543.16;;;16.01;46.36
75424;BME280;64005;55.160;36.002;2023-05-29T05:18:16;99534.72;;;16.01;45.68
75424;BME280;64005;55.160;36.002;2023-05-29T05:20:45;99552.78;;;16.15;45.62
75424;BME280;64005;55.160;36.002;2023-05-29T05:23:13;99539.72;;;16.23;45.43
75424;BME280;64005;55.160;36.002;2023-05-29T05:25:40;99538.38;;;16.33;44.90
75424;BME280;64005;55.160;36.002;2023-05-29T05:28:08;99552.50;;;16.36;43.94
75424;BME280;64005;55.160;36.002;2023-05-29T05:30:36;99549.81;;;16.40;43.31
75424;BME280;64005;55.160;36.002;2023-05-29T05:33:04;99547.88;;;16.44;43.73
75424;BME280;64005;55.160;36.002;2023-05-29T05:35:31;99549.78;;;16.55;43.15
75424;BME280;64005;55.160;36.002;2023-05-29T05:38:00;99548.81;;;16.63;42.41
75424;BME280;64005;55.160;36.002;2023-05-29T05:40:28;99557.38;;;16.67;41.43
75424;BME280;64005;55.160;36.002;2023-05-29T05:42:55;99553.97;;;16.77;40.71
75424;BME280;64005;55.160;36.002;2023-05-29T05:45:23;99547.00;;;16.87;40.44
75424;BME280;64005;55.160;36.002;2023-05-29T05:47:50;99562.47;;;16.96;40.41
75424;BME280;64005;55.160;36.002;2023-05-29T05:50:17;99556.31;;;17.06;40.21
75424;BME280;64005;55.160;36.002;2023-05-29T05:52:45;99556.91;;;17.16;40.37
75424;BME280;64005;55.160;36.002;2023-05-29T05:55:14;99568.47;;;17.30;40.70
75424;BME280;64005;55.160;36.002;2023-05-29T05:57:41;99563.19;;;17.44;40.63
75424;BME280;64005;55.160;36.002;2023-05-29T06:00:10;99567.69;;;17.48;39.92
75424;BME280;64005;55.160;36.002;2023-05-29T06:02:38;99575.91;;;17.57;39.62
75424;BME280;64005;55.160;36.002;2023-05-29T06:05:07;99568.19;;;17.70;39.97
75424;BME280;64005;55.160;36.002;2023-05-29T06:07:35;99574.72;;;17.74;39.39
75424;BME280;64005;55.160;36.002;2023-05-29T06:10:03;99577.38;;;17.86;39.02
75424;BME280;64005;55.160;36.002;2023-05-29T06:31:26;99583.72;;;17.83;37.94
75424;BME280;64005;55.160;36.002;2023-05-29T06:33:54;99579.53;;;17.93;36.81
75424;BME280;64005;55.160;36.002;2023-05-29T06:46:45;99587.66;;;18.59;35.26
75424;BME280;64005;55.160;36.002;2023-05-29T06:49:12;99589.53;;;18.74;35.31
75424;BME280;64005;55.160;36.002;2023-05-29T08:02:22;99591.03;;;20.74;29.28
75424;BME280;64005;55.160;36.002;2023-05-29T08:04:50;99586.22;;;20.78;29.59
75424;BME280;64005;55.160;36.002;2023-05-29T08:07:18;99586.19;;;20.74;29.10
75424;BME280;64005;55.160;36.002;2023-05-29T08:09:45;99584.09;;;20.68;29.62
75424;BME280;64005;55.160;36.002;2023-05-29T08:48:28;99428.41;;;20.39;29.56
75424;BME280;64005;55.160;36.002;2023-05-29T09:14:34;99537.75;;;22.24;29.82
75424;BME280;64005;55.160;36.002;2023-05-29T09:35:01;99538.22;;;23.25;27.88
75424;BME280;64005;55.160;36.002;2023-05-29T09:37:30;99534.59;;;22.93;27.93
75424;BME280;64005;55.160;36.002;2023-05-29T09:39:58;99531.38;;;22.73;27.67
75424;BME280;64005;55.160;36.002;2023-05-29T09:42:25;99534.56;;;22.47;27.70
75424;BME280;64005;55.160;36.002;2023-05-29T09:44:53;99528.44;;;22.27;28.15
75424;BME280;64005;55.160;36.002;2023-05-29T09:47:22;99522.34;;;22.11;27.41
75424;BME280;64005;55.160;36.002;2023-05-29T09:49:50;99516.22;;;22.02;27.92
75424;BME280;64005;55.160;36.002;2023-05-29T09:52:21;99516.66;;;22.14;28.19
75424;BME280;64005;55.160;36.002;2023-05-29T09:54:50;99521.13;;;22.23;28.30
75424;BME280;64005;55.160;36.002;2023-05-29T09:57:18;99512.22;;;22.28;28.52
75424;BME280;64005;55.160;36.002;2023-05-29T09:59:46;99513.47;;;22.30;28.00
75424;BME280;64005;55.160;36.002;2023-05-29T10:02:18;99500.09;;;22.27;28.15
75424;BME280;64005;55.160;36.002;2023-05-29T10:04:45;99504.97;;;22.34;28.22
75424;BME280;64005;55.160;36.002;2023-05-29T10:07:22;99511.88;;;22.40;28.82
75424;BME280;64005;55.160;36.002;2023-05-29T10:09:55;99494.44;;;22.48;28.81
75424;BME280;64005;55.160;36.002;2023-05-29T10:12:27;99496.47;;;22.51;28.42
75424;BME280;64005;55.160;36.002;2023-05-29T10:14:57;99498.50;;;22.44;28.68
75424;BME280;64005;55.160;36.002;2023-05-29T10:17:28;99483.91;;;22.49;28.67
75424;BME280;64005;55.160;36.002;2023-05-29T10:20:02;99477.44;;;22.41;28.70
75424;BME280;64005;55.160;36.002;2023-05-29T10:22:35;99487.97;;;22.55;28.89
75424;BME280;64005;55.160;36.002;2023-05-29T10:25:06;99480.28;;;22.63;28.93
75424;BME280;64005;55.160;36.002;2023-05-29T10:27:36;99484.72;;;22.71;28.40
75424;BME280;64005;55.160;36.002;2023-05-29T10:30:08;99483.94;;;22.81;29.08
75424;BME280;64005;55.160;36.002;2023-05-29T10:32:46;99492.44;;;22.84;29.21
75424;BME280;64005;55.160;36.002;2023-05-29T10:35:20;99494.06;;;22.71;28.83
75424;BME280;64005;55.160;36.002;2023-05-29T10:37:56;99483.53;;;22.86;28.89
75424;BME280;64005;55.160;36.002;2023-05-29T10:40:27;99479.47;;;22.90;27.90
75424;BME280;64005;55.160;36.002;2023-05-29T10:42:55;99486.38;;;22.93;28.23
75424;BME280;64005;55.160;36.002;2023-05-29T10:45:54;99476.63;;;22.97;28.24
75424;BME280;64005;55.160;36.002;2023-05-29T10:48:42;99467.72;;;22.99;28.25
75424;BME280;64005;55.160;36.002;2023-05-29T10:51:25;99483.09;;;22.87;28.03
75424;BME280;64005;55.160;36.002;2023-05-29T10:53:54;99466.91;;;22.63;27.48
75424;BME280;64005;55.160;36.002;2023-05-29T10:56:23;99470.53;;;22.67;27.49
75424;BME280;64005;55.160;36.002;2023-05-29T10:58:57;99471.81;;;22.73;27.40
75424;BME280;64005;55.160;36.002;2023-05-29T11:01:28;99479.47;;;22.83;27.84
75424;BME280;64005;55.160;36.002;2023-05-29T11:04:26;99480.25;;;22.94;27.92
75424;BME280;64005;55.160;36.002;2023-05-29T11:06:54;99481.06;;;22.95;27.81
75424;BME280;64005;55.160;36.002;2023-05-29T11:09:31;99476.63;;;22.94;27.73
75424;BME280;64005;55.160;36.002;2023-05-29T11:12:14;99474.19;;;22.89;27.39
75424;BME280;64005;55.160;36.002;2023-05-29T11:14:54;99475.00;;;22.68;27.94
75424;BME280;64005;55.160;36.002;2023-05-29T11:17:32;99460.41;;;22.55;27.75
75424;BME280;64005;55.160;36.002;2023-05-29T11:20:04;99443.38;;;22.02;27.21
75424;BME280;64005;55.160;36.002;2023-05-29T11:22:51;99457.97;;;22.15;27.23
75424;BME280;64005;55.160;36.002;2023-05-29T11:25:23;99461.22;;;22.31;27.39
75424;BME280;64005;55.160;36.002;2023-05-29T11:27:50;99456.38;;;22.53;27.72
75424;BME280;64005;55.160;36.002;2023-05-29T14:08:14;99363.09;;;23.01;27.09
75424;BME280;64005;55.160;36.002;2023-05-29T17:21:42;99233.66;;;19.14;38.00
75424;BME280;64005;55.160;36.002;2023-05-29T17:35:38;99314.22;;;17.73;41.69
75424;BME280;64005;55.160;36.002;2023-05-29T17:38:07;99188.47;;;16.63;42.53
75424;BME280;64005;55.160;36.002;2023-05-29T17:40:35;99292.50;;;17.08;42.93
75424;BME280;64005;55.160;36.002;2023-05-29T17:45:38;99305.78;;;16.69;44.20
75424;BME280;64005;55.160;36.002;2023-05-29T17:48:05;99307.38;;;16.51;44.71
75424;BME280;64005;55.160;36.002;2023-05-29T17:50:34;99304.53;;;16.32;45.35
75424;BME280;64005;55.160;36.002;2023-05-29T17:53:02;99308.31;;;16.05;45.74
75424;BME280;64005;55.160;36.002;2023-05-29T17:55:31;99305.19;;;15.90;46.14
75424;BME280;64005;55.160;36.002;2023-05-29T18:00:35;99202.63;;;14.80;47.16
75424;BME280;64005;55.160;36.002;2023-05-29T18:03:04;99302.72;;;15.26;47.46
75424;BME280;64005;55.160;36.002;2023-05-29T18:05:32;99318.44;;;15.15;47.92
75424;BME280;64005;55.160;36.002;2023-05-29T18:07:59;99307.00;;;14.92;48.45
75424;BME280;64005;55.160;36.002;2023-05-29T18:10:27;99318.00;;;14.85;48.67
75424;BME280;64005;55.160;36.002;2023-05-29T18:12:56;99320.03;;;14.73;48.93
75424;BME280;64005;55.160;36.002;2023-05-29T18:15:23;99318.44;;;14.59;48.99
75424;BME280;64005;55.160;36.002;2023-05-29T18:17:50;99310.34;;;14.42;49.72
75424;BME280;64005;55.160;36.002;2023-05-29T18:20:18;99319.19;;;14.32;49.75
75424;BME280;64005;55.160;36.002;2023-05-29T18:22:46;99315.94;;;14.18;50.28
75424;BME280;64005;55.160;36.002;2023-05-29T18:25:13;99315.50;;;14.04;50.70
75424;BME280;64005;55.160;36.002;2023-05-29T18:27:43;99322.28;;;13.90;51.13
75424;BME280;64005;55.160;36.002;2023-05-29T18:30:13;99318.31;;;13.79;51.30
75424;BME280;64005;55.160;36.002;2023-05-29T18:32:41;99316.78;;;13.70;51.35
75424;BME280;64005;55.160;36.002;2023-05-29T18:35:08;99318.91;;;13.61;51.94
75424;BME280;64005;55.160;36.002;2023-05-29T18:37:36;99318.53;;;13.50;52.14
75424;BME280;64005;55.160;36.002;2023-05-29T18:40:04;99316.78;;;13.33;52.38
75424;BME280;64005;55.160;36.002;2023-05-29T18:42:32;99322.34;;;13.21;52.46
75424;BME280;64005;55.160;36.002;2023-05-29T18:45:00;99318.69;;;13.08;52.73
75424;BME280;64005;55.160;36.002;2023-05-29T18:47:32;99314.69;;;12.97;52.99
75424;BME280;64005;55.160;36.002;2023-05-29T18:49:59;99322.69;;;12.87;53.57
75424;BME280;64005;55.160;36.002;2023-05-29T18:52:27;99323.09;;;12.77;54.36
75424;BME280;64005;55.160;36.002;2023-05-29T18:54:55;99311.69;;;12.69;54.13
75424;BME280;64005;55.160;36.002;2023-05-29T18:57:22;99306.03;;;12.57;54.31
75424;BME280;64005;55.160;36.002;2023-05-29T18:59:49;99314.56;;;12.61;54.23
75424;BME280;64005;55.160;36.002;2023-05-29T19:02:19;99318.72;;;12.55;54.90
75424;BME280;64005;55.160;36.002;2023-05-29T19:04:48;99317.88;;;12.54;54.46
75424;BME280;64005;55.160;36.002;2023-05-29T19:07:15;99320.19;;;12.52;54.75
75424;BME280;64005;55.160;36.002;2023-05-29T19:09:43;99315.66;;;12.48;55.18
75424;BME280;64005;55.160;36.002;2023-05-29T19:12:10;99315.50;;;12.44;55.46
75424;BME280;64005;55.160;36.002;2023-05-29T19:14:38;99326.88;;;12.39;55.36
75424;BME280;64005;55.160;36.002;2023-05-29T19:17:06;99319.03;;;12.32;55.44
75424;BME280;64005;55.160;36.002;2023-05-29T19:19:35;99328.78;;;12.26;55.90
75424;BME280;64005;55.160;36.002;2023-05-29T19:22:07;99323.63;;;12.16;56.25
75424;BME280;64005;55.160;36.002;2023-05-29T19:24:34;99329.03;;;12.13;56.02
75424;BME280;64005;55.160;36.002;2023-05-29T19:27:02;99321.91;;;12.03;56.57
75424;BME280;64005;55.160;36.002;2023-05-29T19:29:29;99331.06;;;12.04;56.42
75424;BME280;64005;55.160;36.002;2023-05-29T19:31:57;99323.38;;;12.01;56.57
75424;BME280;64005;55.160;36.002;2023-05-29T19:34:24;99325.16;;;12.05;56.41
75424;BME280;64005;55.160;36.002;2023-05-29T19:36:51;99326.13;;;12.09;55.90
75424;BME280;64005;55.160;36.002;2023-05-29T19:39:20;99320.66;;;12.13;55.95
75424;BME280;64005;55.160;36.002;2023-05-29T19:41:48;99310.66;;;12.12;56.19
75424;BME280;64005;55.160;36.002;2023-05-29T19:44:15;99321.63;;;12.17;56.48
75424;BME280;64005;55.160;36.002;2023-05-29T19:46:43;99331.00;;;12.12;56.82
75424;BME280;64005;55.160;36.002;2023-05-29T19:49:13;99322.34;;;12.05;56.66
75424;BME280;64005;55.160;36.002;2023-05-29T19:51:41;99320.44;;;11.97;56.86
75424;BME280;64005;55.160;36.002;2023-05-29T19:54:09;99316.69;;;11.93;56.82
75424;BME280;64005;55.160;36.002;2023-05-29T19:56:38;99314.25;;;11.91;57.32
75424;BME280;64005;55.160;36.002;2023-05-29T19:59:05;99313.28;;;11.87;57.20
75424;BME280;64005;55.160;36.002;2023-05-29T20:01:33;99313.22;;;11.75;57.69
75424;BME280;64005;55.160;36.002;2023-05-29T20:04:00;99311.16;;;11.55;58.42
75424;BME280;64005;55.160;36.002;2023-05-29T20:06:28;99300.75;;;11.35;58.39
75424;BME280;64005;55.160;36.002;2023-05-29T20:08:58;99307.81;;;11.24;58.78
75424;BME280;64005;55.160;36.002;2023-05-29T20:11:26;99306.22;;;11.14;58.74
75424;BME280;64005;55.160;36.002;2023-05-29T20:13:55;99306.25;;;11.05;59.14
75424;BME280;64005;55.160;36.002;2023-05-29T20:16:23;99306.44;;;11.00;59.22
75424;BME280;64005;55.160;36.002;2023-05-29T20:18:50;99298.44;;;10.90;59.35
75424;BME280;64005;55.160;36.002;2023-05-29T20:21:18;99300.25;;;10.77;59.70
75424;BME280;64005;55.160;36.002;2023-05-29T20:23:48;99293.59;;;10.61;59.86
75424;BME280;64005;55.160;36.002;2023-05-29T20:26:16;99292.44;;;10.54;60.29
75424;BME280;64005;55.160;36.002;2023-05-29T20:28:43;99287.69;;;10.46;60.46
75424;BME280;64005;55.160;36.002;2023-05-29T20:31:12;99290.97;;;10.39;60.53
75424;BME280;64005;55.160;36.002;2023-05-29T20:33:41;99291.47;;;10.32;60.92
75424;BME280;64005;55.160;36.002;2023-05-29T20:36:09;99288.84;;;10.27;60.90
75424;BME280;64005;55.160;36.002;2023-05-29T20:38:36;99282.97;;;10.20;61.01
75424;BME280;64005;55.160;36.002;2023-05-29T20:41:04;99290.94;;;10.13;61.16
75424;BME280;64005;55.160;36.002;2023-05-29T20:43:32;99273.94;;;10.06;61.57
75424;BME280;64005;55.160;36.002;2023-05-29T20:46:03;99204.91;;;9.48;61.32
75424;BME280;64005;55.160;36.002;2023-05-29T20:48:33;99287.50;;;9.90;61.68
75424;BME280;64005;55.160;36.002;2023-05-29T20:51:01;99289.13;;;9.83;62.01
75424;BME280;64005;55.160;36.002;2023-05-29T20:53:29;99287.13;;;9.75;62.20
75424;BME280;64005;55.160;36.002;2023-05-29T20:55:56;99289.88;;;9.66;62.30
75424;BME280;64005;55.160;36.002;2023-05-29T20:58:24;99290.69;;;9.58;62.52
75424;BME280;64005;55.160;36.002;2023-05-29T21:00:51;99290.00;;;9.52;62.73
75424;BME280;64005;55.160;36.002;2023-05-29T21:03:19;99282.66;;;9.48;62.66
75424;BME280;64005;55.160;36.002;2023-05-29T21:05:50;99294.41;;;9.45;62.79
75424;BME280;64005;55.160;36.002;2023-05-29T21:08:17;99291.97;;;9.43;62.86
75424;BME280;64005;55.160;36.002;2023-05-29T21:10:46;99290.63;;;9.41;63.10
75424;BME280;64005;55.160;36.002;2023-05-29T21:13:14;99288.84;;;9.36;63.13
75424;BME280;64005;55.160;36.002;2023-05-29T21:15:41;99282.09;;;9.29;63.36
75424;BME280;64005;55.160;36.002;2023-05-29T21:18:09;99282.56;;;9.22;63.47
75424;BME280;64005;55.160;36.002;2023-05-29T21:20:36;99278.97;;;9.22;63.34
75424;BME280;64005;55.160;36.002;2023-05-29T21:23:05;99280.09;;;9.21;63.60
75424;BME280;64005;55.160;36.002;2023-05-29T21:25:33;99280.94;;;9.21;63.50
75424;BME280;64005;55.160;36.002;2023-05-29T21:28:01;99278.63;;;9.14;63.66
75424;BME280;64005;55.160;36.002;2023-05-29T21:30:28;99289.41;;;9.16;63.64
75424;BME280;64005;55.160;36.002;2023-05-29T21:32:56;99277.28;;;9.12;63.93
75424;BME280;64005;55.160;36.002;2023-05-29T21:35:26;99276.31;;;9.08;63.80
75424;BME280;64005;55.160;36.002;2023-05-29T21:37:53;99284.25;;;9.01;64.06
75424;BME280;64005;55.160;36.002;2023-05-29T21:40:23;99276.91;;;8.96;64.55
75424;BME280;64005;55.160;36.002;2023-05-29T21:42:50;99279.78;;;8.91;64.37
75424;BME280;64005;55.160;36.002;2023-05-29T21:45:21;99275.78;;;8.97;64.45
75424;BME280;64005;55.160;36.002;2023-05-29T21:47:49;99278.72;;;9.01;64.36
75424;BME280;64005;55.160;36.002;2023-05-29T21:50:20;99219.66;;;8.69;64.28
75424;BME280;64005;55.160;36.002;2023-05-29T21:52:47;99271.88;;;9.07;64.29
75424;BME280;64005;55.160;36.002;2023-05-29T21:55:15;99275.16;;;9.09;64.46
75424;BME280;64005;55.160;36.002;2023-05-29T21:57:46;99272.38;;;9.09;64.26
75424;BME280;64005;55.160;36.002;2023-05-29T22:00:14;99271.72;;;9.12;64.22
75424;BME280;64005;55.160;36.002;2023-05-29T22:02:43;99260.47;;;9.08;64.47
75424;BME280;64005;55.160;36.002;2023-05-29T22:05:10;99262.28;;;9.13;64.37
75424;BME280;64005;55.160;36.002;2023-05-29T22:07:38;99272.75;;;9.16;64.65
75424;BME280;64005;55.160;36.002;2023-05-29T22:10:07;99264.44;;;9.16;64.89
75424;BME280;64005;55.160;36.002;2023-05-29T22:12:35;99260.31;;;9.13;64.75
75424;BME280;64005;55.160;36.002;2023-05-29T22:15:06;99262.78;;;9.15;64.69
75424;BME280;64005;55.160;36.002;2023-05-29T22:17:33;99260.00;;;9.15;64.80
75424;BME280;64005;55.160;36.002;2023-05-29T22:20:01;99263.09;;;9.13;64.80
75424;BME280;64005;55.160;36.002;2023-05-29T22:22:32;99259.81;;;9.11;64.87
75424;BME280;64005;55.160;36.002;2023-05-29T22:25:04;99260.47;;;9.08;65.09
75424;BME280;64005;55.160;36.002;2023-05-29T22:27:32;99259.97;;;9.06;65.27
75424;BME280;64005;55.160;36.002;2023-05-29T22:30:00;99256.19;;;9.02;65.25
75424;BME280;64005;55.160;36.002;2023-05-29T22:32:32;99260.25;;;8.96;65.54
75424;BME280;64005;55.160;36.002;2023-05-29T22:34:59;99263.19;;;9.00;65.81
75424;BME280;64005;55.160;36.002;2023-05-29T22:37:28;99263.72;;;9.02;65.62
75424;BME280;64005;55.160;36.002;2023-05-29T22:39:55;99259.44;;;9.04;65.87
75424;BME280;64005;55.160;36.002;2023-05-29T22:42:23;99259.97;;;9.06;65.97
75424;BME280;64005;55.160;36.002;2023-05-29T22:44:50;99263.75;;;9.19;65.80
75424;BME280;64005;55.160;36.002;2023-05-29T22:47:18;99259.91;;;9.29;65.56
75424;BME280;64005;55.160;36.002;2023-05-29T22:49:48;99267.44;;;9.37;65.71
75424;BME280;64005;55.160;36.002;2023-05-29T22:52:15;99265.00;;;9.44;65.59
75424;BME280;64005;55.160;36.002;2023-05-29T22:54:43;99259.63;;;9.47;65.67
75424;BME280;64005;55.160;36.002;2023-05-29T22:57:11;99263.72;;;9.50;65.63
75424;BME280;64005;55.160;36.002;2023-05-29T22:59:39;99263.38;;;9.51;65.70
75424;BME280;64005;55.160;36.002;2023-05-29T23:02:06;99265.69;;;9.58;65.64
75424;BME280;64005;55.160;36.002;2023-05-29T23:04:34;99265.72;;;9.67;65.61
75424;BME280;64005;55.160;36.002;2023-05-29T23:07:03;99255.56;;;9.71;65.71
75424;BME280;64005;55.160;36.002;2023-05-29T23:09:31;99256.72;;;9.78;65.63
75424;BME280;64005;55.160;36.002;2023-05-29T23:11:59;99267.53;;;9.80;65.88
75424;BME280;64005;55.160;36.002;2023-05-29T23:14:26;99258.53;;;9.74;66.05
75424;BME280;64005;55.160;36.002;2023-05-29T23:16:53;99262.13;;;9.75;65.92
75424;BME280;64005;55.160;36.002;2023-05-29T23:19:21;99265.25;;;9.82;65.87
75424;BME280;64005;55.160;36.002;2023-05-29T23:21:49;99276.19;;;9.87;66.00
75424;BME280;64005;55.160;36.002;2023-05-29T23:24:17;99262.50;;;9.90;65.84
75424;BME280;64005;55.160;36.002;2023-05-29T23:26:45;99269.53;;;9.96;65.93
75424;BME280;64005;55.160;36.002;2023-05-29T23:29:12;99273.91;;;9.97;66.00
75424;BME280;64005;55.160;36.002;2023-05-29T23:31:40;99269.34;;;10.02;65.90
75424;BME280;64005;55.160;36.002;2023-05-29T23:34:07;99270.00;;;10.07;65.81
75424;BME280;64005;55.160;36.002;2023-05-29T23:36:35;99269.69;;;10.09;65.96
75424;BME280;64005;55.160;36.002;2023-05-29T23:39:04;99264.28;;;10.12;66.09
75424;BME280;64005;55.160;36.002;2023-05-29T23:41:33;99259.41;;;10.09;65.93
75424;BME280;64005;55.160;36.002;2023-05-29T23:44:01;99273.81;;;10.20;66.02
75424;BME280;64005;55.160;36.002;2023-05-29T23:46:28;99267.91;;;10.21;66.44
75424;BME280;64005;55.160;36.002;2023-05-29T23:48:56;99270.03;;;10.24;66.51
75424;BME280;64005;55.160;36.002;2023-05-29T23:51:23;99269.88;;;10.29;66.21
75424;BME280;64005;55.160;36.002;2023-05-29T23:53:51;99273.63;;;10.33;66.26
75424;BME280;64005;55.160;36.002;2023-05-29T23:56:18;99275.09;;;10.31;66.35
75424;BME280;64005;55.160;36.002;2023-05-29T23:58:48;99275.09;;;10.31;66.68
